Time;durP1;ratioP1;P1;durP2;ratioP2;P2;SDS_P1;SDS_P2;PMS_P1;PMS_P2;Temp;Humidity;BMP_temperature;BMP_pressure;BME280_temperature;BME280_humidity;BME280_pressure;Samples;Min_cycle;Max_cycle;Signal;HPM_P1;HPM_P2
2022/07/19 00:02:04;;;;;;;5.07;2.63;;;;;;;;;;4915169;29;20051;-69
2022/07/19 00:04:32;;;;;;;3.55;2.70;;;;;;;;;;4915561;29;20051;-69
2022/07/19 00:06:58;;;;;;;3.35;2.47;;;;;;;;;;4915152;29;20056;-68
2022/07/19 00:09:26;;;;;;;2.60;2.40;;;;;;;;;;4915490;29;20052;-68
2022/07/19 00:11:53;;;;;;;2.75;2.25;;;;;;;;;;4915253;29;20052;-69
2022/07/19 00:14:20;;;;;;;3.50;2.50;;;;;;;;;;4915283;29;20059;-69
2022/07/19 00:16:47;;;;;;;4.72;3.17;;;;;;;;;;4915369;29;20400;-69
2022/07/19 00:19:14;;;;;;;5.78;2.50;;;;;;;;;;4919961;29;20095;-69
2022/07/19 00:21:41;;;;;;;3.45;2.58;;;;;;;;;;4934039;29;20052;-69
2022/07/19 00:24:07;;;;;;;3.80;2.88;;;;;;;;;;4934192;29;20052;-69
2022/07/19 00:26:34;;;;;;;4.07;3.15;;;;;;;;;;4934217;29;20052;-69
2022/07/19 00:29:01;;;;;;;4.40;3.13;;;;;;;;;;4918654;29;20052;-68
2022/07/19 00:31:30;;;;;;;3.97;3.00;;;;;;;;;;4915330;29;20060;-68
2022/07/19 00:33:57;;;;;;;4.47;2.65;;;;;;;;;;4918172;29;20111;-68
2022/07/19 00:36:23;;;;;;;3.63;3.20;;;;;;;;;;4918391;29;20052;-69
2022/07/19 00:38:50;;;;;;;4.10;3.05;;;;;;;;;;4917001;29;20135;-68
2022/07/19 00:41:17;;;;;;;4.57;2.83;;;;;;;;;;4918562;29;20060;-69
2022/07/19 00:43:43;;;;;;;3.50;2.90;;;;;;;;;;4918305;29;20427;-69
2022/07/19 00:46:15;;;;;;;5.13;2.53;;;;;;;;;;4918264;29;20060;-69
2022/07/19 00:48:42;;;;;;;4.20;2.88;;;;;;;;;;4930298;29;20107;-69
2022/07/19 00:51:10;;;;;;;3.55;2.60;;;;;;;;;;4937386;29;20063;-69
2022/07/19 00:53:37;;;;;;;5.53;2.30;;;;;;;;;;4936078;29;20057;-69
2022/07/19 00:56:08;;;;;;;4.45;2.67;;;;;;;;;;4937102;29;20071;-69
2022/07/19 00:58:35;;;;;;;4.13;2.90;;;;;;;;;;4925907;29;20151;-70
2022/07/19 01:01:04;;;;;;;3.40;2.65;;;;;;;;;;4918078;29;20052;-69
2022/07/19 01:03:32;;;;;;;3.70;2.40;;;;;;;;;;4917001;29;20059;-69
2022/07/19 01:05:58;;;;;;;5.28;2.80;;;;;;;;;;4918193;29;20088;-69
2022/07/19 01:08:25;;;;;;;3.88;2.38;;;;;;;;;;4926261;29;20058;-69
2022/07/19 01:10:52;;;;;;;2.97;2.72;;;;;;;;;;4936850;29;20047;-68
2022/07/19 01:13:18;;;;;;;5.97;2.90;;;;;;;;;;4935947;29;20048;-68
2022/07/19 01:15:45;;;;;;;3.72;2.70;;;;;;;;;;4937087;29;20147;-69
2022/07/19 01:18:12;;;;;;;4.22;2.80;;;;;;;;;;4929185;29;20048;-69
2022/07/19 01:20:39;;;;;;;5.15;2.72;;;;;;;;;;4917727;29;20052;-68
2022/07/19 01:23:05;;;;;;;6.03;3.03;;;;;;;;;;4917747;29;20048;-68
2022/07/19 01:25:33;;;;;;;4.80;2.67;;;;;;;;;;4932222;29;20067;-69
2022/07/19 01:28:00;;;;;;;6.25;2.80;;;;;;;;;;4919977;29;20142;-69
2022/07/19 01:30:27;;;;;;;4.80;2.60;;;;;;;;;;4916543;29;20048;-69
2022/07/19 01:32:56;;;;;;;2.80;2.55;;;;;;;;;;4917499;29;20058;-68
2022/07/19 01:35:23;;;;;;;2.40;2.20;;;;;;;;;;4917498;29;20068;-69
2022/07/19 01:37:50;;;;;;;5.20;2.92;;;;;;;;;;4921045;29;20047;-69
2022/07/19 01:40:17;;;;;;;4.40;2.70;;;;;;;;;;4935033;29;20044;-70
2022/07/19 01:42:45;;;;;;;4.43;2.75;;;;;;;;;;4936300;29;20055;-70
2022/07/19 01:45:12;;;;;;;3.38;2.97;;;;;;;;;;4936176;29;20455;-70
2022/07/19 01:47:40;;;;;;;4.25;2.67;;;;;;;;;;4935545;29;20104;-70
2022/07/19 01:50:08;;;;;;;4.63;2.95;;;;;;;;;;4935935;29;20048;-70
2022/07/19 01:52:35;;;;;;;7.35;3.35;;;;;;;;;;4936091;29;20059;-70
2022/07/19 01:55:03;;;;;;;3.17;2.75;;;;;;;;;;4936182;29;20058;-70
2022/07/19 01:57:29;;;;;;;4.40;2.28;;;;;;;;;;4929593;29;20048;-70
2022/07/19 01:59:56;;;;;;;3.70;2.42;;;;;;;;;;4916914;29;20055;-70
2022/07/19 02:02:23;;;;;;;4.05;2.90;;;;;;;;;;4917515;29;20526;-70
2022/07/19 02:04:49;;;;;;;3.97;2.80;;;;;;;;;;4916800;29;20496;-69
2022/07/19 02:07:16;;;;;;;2.95;2.72;;;;;;;;;;4921864;29;20047;-70
2022/07/19 02:09:44;;;;;;;5.18;3.00;;;;;;;;;;4935657;29;20086;-70
2022/07/19 02:12:10;;;;;;;3.55;3.10;;;;;;;;;;4935782;29;20511;-69
2022/07/19 02:14:37;;;;;;;5.05;2.95;;;;;;;;;;4936826;29;20102;-69
2022/07/19 02:17:04;;;;;;;3.53;3.22;;;;;;;;;;4935718;29;20514;-69
2022/07/19 02:19:30;;;;;;;5.15;3.45;;;;;;;;;;4935229;29;20061;-69
2022/07/19 02:21:57;;;;;;;3.30;3.00;;;;;;;;;;4935516;29;20103;-69
2022/07/19 02:24:24;;;;;;;3.65;3.15;;;;;;;;;;4935549;29;20083;-69
2022/07/19 02:26:50;;;;;;;3.67;3.33;;;;;;;;;;4934500;29;20058;-70
2022/07/19 02:29:17;;;;;;;7.32;3.72;;;;;;;;;;4916290;29;20048;-70
2022/07/19 02:31:44;;;;;;;5.50;3.33;;;;;;;;;;4916495;29;20056;-69
2022/07/19 02:34:11;;;;;;;3.58;2.78;;;;;;;;;;4916400;29;20086;-70
2022/07/19 02:36:37;;;;;;;3.60;2.95;;;;;;;;;;4916534;29;20512;-70
2022/07/19 02:39:04;;;;;;;5.75;2.88;;;;;;;;;;4933767;29;20055;-70
2022/07/19 02:41:31;;;;;;;3.80;3.40;;;;;;;;;;4935361;29;20062;-70
2022/07/19 02:43:58;;;;;;;5.82;3.55;;;;;;;;;;4935150;29;20499;-70
2022/07/19 02:46:25;;;;;;;5.03;3.45;;;;;;;;;;4933971;29;20059;-70
2022/07/19 02:48:52;;;;;;;4.68;3.17;;;;;;;;;;4918851;29;20099;-70
2022/07/19 02:51:18;;;;;;;3.92;3.42;;;;;;;;;;4916166;29;20052;-70
2022/07/19 02:53:45;;;;;;;4.40;3.28;;;;;;;;;;4916409;29;20052;-69
2022/07/19 02:56:12;;;;;;;3.88;3.08;;;;;;;;;;4915771;29;20056;-69
2022/07/19 02:58:38;;;;;;;6.03;3.67;;;;;;;;;;4929953;29;20062;-69
2022/07/19 03:01:05;;;;;;;3.97;3.10;;;;;;;;;;4934736;29;20051;-69
2022/07/19 03:03:44;;;;;;;4.15;3.60;;;;;;;;;;4935096;29;20059;-69
2022/07/19 03:06:11;;;;;;;4.70;3.60;;;;;;;;;;4935000;29;20087;-70
2022/07/19 03:08:38;;;;;;;3.75;3.30;;;;;;;;;;4919653;29;20075;-70
2022/07/19 03:11:05;;;;;;;5.47;3.47;;;;;;;;;;4916046;29;20055;-70
2022/07/19 03:13:31;;;;;;;4.25;3.35;;;;;;;;;;4914707;29;20060;-70
2022/07/19 03:15:58;;;;;;;5.20;3.95;;;;;;;;;;4915772;29;20060;-69
2022/07/19 03:18:25;;;;;;;5.35;3.58;;;;;;;;;;4927650;29;20060;-69
2022/07/19 03:20:51;;;;;;;5.50;3.65;;;;;;;;;;4934594;29;20446;-69
2022/07/19 03:23:18;;;;;;;6.35;4.07;;;;;;;;;;4934598;29;20055;-70
2022/07/19 03:25:44;;;;;;;5.32;4.15;;;;;;;;;;4934240;29;20055;-69
2022/07/19 03:28:11;;;;;;;4.18;3.67;;;;;;;;;;4964645;23;20044;-68
2022/07/19 03:30:38;;;;;;;7.22;3.92;;;;;;;;;;4934702;29;20058;-68
2022/07/19 03:33:04;;;;;;;4.00;3.20;;;;;;;;;;4934705;29;20079;-69
2022/07/19 03:35:31;;;;;;;6.55;4.32;;;;;;;;;;4934927;29;20052;-69
2022/07/19 03:37:58;;;;;;;4.15;3.55;;;;;;;;;;4934362;29;20052;-69
2022/07/19 03:40:24;;;;;;;4.28;3.88;;;;;;;;;;4934526;29;20056;-69
2022/07/19 03:42:51;;;;;;;4.65;4.13;;;;;;;;;;4934413;29;20047;-69
2022/07/19 03:45:18;;;;;;;6.05;3.72;;;;;;;;;;4934773;29;20052;-69
2022/07/19 03:47:44;;;;;;;5.75;3.63;;;;;;;;;;4934484;29;20058;-69
2022/07/19 03:50:11;;;;;;;4.18;3.28;;;;;;;;;;4934352;29;20047;-69
2022/07/19 03:52:38;;;;;;;4.25;3.50;;;;;;;;;;4934655;29;20056;-69
2022/07/19 03:55:05;;;;;;;4.78;3.55;;;;;;;;;;4934473;29;20062;-69
2022/07/19 03:57:32;;;;;;;4.07;3.72;;;;;;;;;;4934197;29;20065;-68
2022/07/19 03:59:59;;;;;;;7.38;4.38;;;;;;;;;;4930383;29;20048;-68
2022/07/19 04:02:25;;;;;;;5.70;3.17;;;;;;;;;;4934311;29;20052;-68
2022/07/19 04:04:52;;;;;;;5.28;3.58;;;;;;;;;;4934189;29;20060;-68
2022/07/19 04:07:19;;;;;;;3.65;3.22;;;;;;;;;;4935370;29;20154;-68
2022/07/19 04:09:46;;;;;;;3.70;3.38;;;;;;;;;;4938774;29;20048;-69
2022/07/19 04:12:12;;;;;;;4.53;3.50;;;;;;;;;;4938888;29;20060;-68
2022/07/19 04:14:39;;;;;;;4.70;3.35;;;;;;;;;;4939713;29;20047;-68
2022/07/19 04:17:06;;;;;;;5.25;3.47;;;;;;;;;;4939214;29;20059;-68
2022/07/19 04:19:33;;;;;;;7.55;3.20;;;;;;;;;;4938937;29;20048;-68
2022/07/19 04:22:00;;;;;;;4.85;3.42;;;;;;;;;;4938933;29;20056;-68
2022/07/19 04:24:27;;;;;;;7.55;3.35;;;;;;;;;;4937980;29;20066;-68
2022/07/19 04:26:53;;;;;;;4.05;3.65;;;;;;;;;;4938150;29;20056;-67
2022/07/19 04:29:20;;;;;;;5.90;3.38;;;;;;;;;;4937481;29;20055;-67
2022/07/19 04:31:47;;;;;;;3.95;3.50;;;;;;;;;;4937500;29;20058;-67
2022/07/19 04:34:14;;;;;;;4.10;3.67;;;;;;;;;;4937699;29;20396;-67
2022/07/19 04:36:41;;;;;;;5.05;3.72;;;;;;;;;;4938041;29;20142;-68
2022/07/19 04:39:08;;;;;;;5.68;3.70;;;;;;;;;;4937175;29;20503;-68
2022/07/19 04:41:34;;;;;;;4.55;3.72;;;;;;;;;;4937603;29;20054;-68
2022/07/19 04:44:02;;;;;;;4.22;3.40;;;;;;;;;;4937541;29;20107;-69
2022/07/19 04:46:28;;;;;;;4.95;3.95;;;;;;;;;;4937234;29;20063;-69
2022/07/19 04:48:55;;;;;;;5.85;3.67;;;;;;;;;;4936827;29;20122;-70
2022/07/19 04:51:22;;;;;;;5.43;3.85;;;;;;;;;;4937090;29;20052;-70
2022/07/19 04:53:49;;;;;;;5.90;4.07;;;;;;;;;;4937154;29;20062;-70
2022/07/19 04:56:15;;;;;;;4.10;3.67;;;;;;;;;;4937333;29;20058;-69
2022/07/19 04:58:42;;;;;;;5.57;3.97;;;;;;;;;;4937097;29;20426;-69
2022/07/19 05:01:08;;;;;;;8.00;4.18;;;;;;;;;;4928127;29;20514;-68
2022/07/19 05:03:35;;;;;;;5.90;4.22;;;;;;;;;;4918114;29;20431;-69
2022/07/19 05:06:02;;;;;;;8.07;4.15;;;;;;;;;;4917982;29;20598;-69
2022/07/19 05:08:28;;;;;;;5.85;4.30;;;;;;;;;;4917775;29;20052;-69
2022/07/19 05:10:55;;;;;;;7.57;4.60;;;;;;;;;;4923939;29;20054;-67
2022/07/19 05:13:22;;;;;;;5.80;4.25;;;;;;;;;;4936749;29;20549;-67
2022/07/19 05:15:49;;;;;;;5.05;3.95;;;;;;;;;;4936942;29;20487;-67
2022/07/19 05:18:15;;;;;;;5.82;4.70;;;;;;;;;;4936533;29;20047;-67
2022/07/19 05:20:42;;;;;;;4.72;4.18;;;;;;;;;;4936449;29;20426;-67
2022/07/19 05:23:09;;;;;;;6.07;3.95;;;;;;;;;;4936788;29;20055;-67
2022/07/19 05:25:35;;;;;;;7.13;4.30;;;;;;;;;;4936871;29;20422;-67
2022/07/19 05:28:02;;;;;;;6.45;4.25;;;;;;;;;;4937004;29;20056;-66
2022/07/19 05:30:29;;;;;;;8.15;4.30;;;;;;;;;;4935869;29;20044;-66
2022/07/19 05:32:56;;;;;;;10.15;4.75;;;;;;;;;;4936695;29;20051;-67
2022/07/19 05:35:22;;;;;;;7.10;4.50;;;;;;;;;;4936402;29;20067;-67
2022/07/19 05:37:50;;;;;;;6.30;5.00;;;;;;;;;;4936266;29;20189;-67
2022/07/19 05:40:17;;;;;;;8.40;4.75;;;;;;;;;;4935579;29;20135;-67
2022/07/19 05:42:43;;;;;;;8.40;4.07;;;;;;;;;;4916464;29;20059;-67
2022/07/19 05:45:10;;;;;;;5.28;4.13;;;;;;;;;;4917303;29;20052;-67
2022/07/19 05:47:37;;;;;;;6.55;3.88;;;;;;;;;;4917310;29;20048;-67
2022/07/19 05:50:04;;;;;;;6.22;4.70;;;;;;;;;;4917066;29;20057;-68
2022/07/19 05:52:31;;;;;;;6.13;4.80;;;;;;;;;;4917387;29;20058;-68
2022/07/19 05:55:05;;;;;;;4.37;3.77;;;;;;;;;;4917230;29;20063;-68
2022/07/19 05:57:31;;;;;;;4.88;4.13;;;;;;;;;;4917180;29;20064;-68
2022/07/19 05:59:58;;;;;;;5.50;4.40;;;;;;;;;;4916962;29;20052;-68
2022/07/19 06:02:25;;;;;;;4.90;3.58;;;;;;;;;;4916889;29;20070;-68
2022/07/19 06:04:51;;;;;;;6.28;3.63;;;;;;;;;;4917259;29;20052;-67
2022/07/19 06:07:18;;;;;;;4.97;3.40;;;;;;;;;;4917168;29;20078;-67
2022/07/19 06:09:45;;;;;;;3.95;3.53;;;;;;;;;;4916840;29;20522;-67
2022/07/19 06:12:11;;;;;;;5.53;3.70;;;;;;;;;;4917286;29;20055;-67
2022/07/19 06:14:38;;;;;;;6.45;3.50;;;;;;;;;;4915976;29;20052;-67
2022/07/19 06:17:05;;;;;;;7.97;4.22;;;;;;;;;;4916639;29;20060;-67
2022/07/19 06:19:31;;;;;;;7.13;3.35;;;;;;;;;;4916672;29;20048;-67
2022/07/19 06:21:58;;;;;;;6.22;3.72;;;;;;;;;;4929856;29;20051;-67
2022/07/19 06:24:25;;;;;;;4.03;3.00;;;;;;;;;;4935124;29;20056;-66
2022/07/19 06:26:51;;;;;;;5.72;3.50;;;;;;;;;;4935356;29;20064;-68
2022/07/19 06:29:18;;;;;;;4.40;3.22;;;;;;;;;;4934118;29;20063;-68
2022/07/19 06:31:45;;;;;;;4.65;3.53;;;;;;;;;;4934206;29;20059;-69
2022/07/19 06:34:11;;;;;;;6.82;3.17;;;;;;;;;;4920520;29;20056;-70
2022/07/19 06:36:39;;;;;;;5.70;3.15;;;;;;;;;;4920058;29;20054;-70
2022/07/19 06:39:06;;;;;;;4.03;3.00;;;;;;;;;;4917465;29;20143;-70
2022/07/19 06:41:32;;;;;;;3.70;3.10;;;;;;;;;;4919943;29;20507;-70
2022/07/19 06:44:00;;;;;;;4.32;2.63;;;;;;;;;;4923815;29;20094;-70
2022/07/19 06:46:26;;;;;;;5.78;2.67;;;;;;;;;;4917817;29;20094;-70
2022/07/19 06:48:53;;;;;;;5.75;2.80;;;;;;;;;;4920478;29;20052;-70
2022/07/19 06:51:21;;;;;;;5.20;2.63;;;;;;;;;;4921770;29;20059;-70
2022/07/19 06:53:48;;;;;;;4.55;2.63;;;;;;;;;;4930651;29;20051;-70
2022/07/19 06:56:15;;;;;;;8.30;3.47;;;;;;;;;;4935091;29;20423;-70
2022/07/19 06:58:41;;;;;;;5.47;2.97;;;;;;;;;;4927701;29;20054;-70
2022/07/19 07:01:09;;;;;;;6.63;3.20;;;;;;;;;;4927313;29;20488;-70
2022/07/19 07:03:36;;;;;;;4.15;2.70;;;;;;;;;;4923471;29;20066;-71
2022/07/19 07:06:03;;;;;;;4.70;2.20;;;;;;;;;;4922554;29;20076;-70
2022/07/19 07:08:30;;;;;;;3.08;2.47;;;;;;;;;;4931393;29;20418;-70
2022/07/19 07:10:57;;;;;;;4.90;2.72;;;;;;;;;;4930630;29;20055;-70
2022/07/19 07:13:23;;;;;;;4.00;2.30;;;;;;;;;;4920902;29;20430;-70
2022/07/19 07:15:50;;;;;;;6.03;2.40;;;;;;;;;;4922821;29;20060;-68
2022/07/19 07:18:17;;;;;;;4.18;2.38;;;;;;;;;;4916708;29;20058;-67
2022/07/19 07:20:44;;;;;;;3.75;2.67;;;;;;;;;;4920934;29;20131;-67
2022/07/19 07:23:10;;;;;;;5.05;2.30;;;;;;;;;;4931318;28;20071;-67
2022/07/19 07:25:37;;;;;;;5.18;2.22;;;;;;;;;;4934526;29;20052;-67
2022/07/19 07:28:04;;;;;;;3.13;2.10;;;;;;;;;;4933521;29;20134;-68
2022/07/19 07:30:31;;;;;;;3.83;1.80;;;;;;;;;;4927271;29;20051;-68
2022/07/19 07:32:58;;;;;;;2.63;1.60;;;;;;;;;;4926229;29;20052;-67
2022/07/19 07:35:24;;;;;;;3.47;1.90;;;;;;;;;;4915490;29;20059;-67
2022/07/19 07:37:51;;;;;;;2.08;1.80;;;;;;;;;;4926991;29;20048;-67
2022/07/19 07:40:18;;;;;;;2.45;2.15;;;;;;;;;;4934172;29;20059;-70
2022/07/19 07:42:45;;;;;;;4.45;2.65;;;;;;;;;;4926203;29;20066;-72
2022/07/19 07:45:11;;;;;;;2.63;1.85;;;;;;;;;;4928107;29;20051;-67
2022/07/19 07:47:38;;;;;;;4.38;2.53;;;;;;;;;;4921849;29;20043;-67
2022/07/19 07:50:06;;;;;;;4.07;2.58;;;;;;;;;;4923848;29;20131;-67
2022/07/19 07:52:33;;;;;;;5.53;2.00;;;;;;;;;;4922573;29;20043;-67
2022/07/19 07:54:59;;;;;;;5.07;1.80;;;;;;;;;;4925682;29;20048;-67
2022/07/19 07:57:46;;;;;;;4.25;2.10;;;;;;;;;;4925754;29;20054;-68
2022/07/19 08:00:13;;;;;;;5.03;1.90;;;;;;;;;;4929348;29;20066;-68
2022/07/19 08:02:41;;;;;;;4.38;1.77;;;;;;;;;;4927399;29;20079;-67
2022/07/19 08:05:09;;;;;;;3.65;1.48;;;;;;;;;;4938230;29;20067;-67
2022/07/19 08:07:35;;;;;;;5.30;1.60;;;;;;;;;;4925008;29;20052;-67
2022/07/19 08:10:07;;;;;;;2.15;1.90;;;;;;;;;;4918783;29;20067;-67
2022/07/19 08:12:34;;;;;;;1.83;1.40;;;;;;;;;;4937863;29;20138;-68
2022/07/19 08:15:01;;;;;;;2.70;1.70;;;;;;;;;;4937943;29;20052;-67
2022/07/19 08:17:27;;;;;;;1.70;1.60;;;;;;;;;;4924570;29;20495;-68
2022/07/19 08:19:54;;;;;;;3.17;1.88;;;;;;;;;;4924118;29;20075;-67
2022/07/19 08:22:21;;;;;;;1.40;1.30;;;;;;;;;;4928855;29;20048;-67
2022/07/19 08:24:48;;;;;;;2.45;1.40;;;;;;;;;;4925167;29;20044;-67
2022/07/19 08:27:14;;;;;;;1.55;1.45;;;;;;;;;;4924256;29;20059;-66
2022/07/19 08:29:41;;;;;;;1.67;1.52;;;;;;;;;;4925023;29;20048;-66
2022/07/19 08:32:08;;;;;;;4.45;1.60;;;;;;;;;;4925625;29;20099;-66
2022/07/19 08:34:35;;;;;;;3.33;1.50;;;;;;;;;;4927860;29;20075;-67
2022/07/19 08:37:03;;;;;;;2.92;1.70;;;;;;;;;;4925630;29;20542;-67
2022/07/19 08:39:30;;;;;;;2.90;1.45;;;;;;;;;;4924744;29;20051;-66
2022/07/19 08:41:56;;;;;;;2.80;1.50;;;;;;;;;;4925124;29;20036;-66
2022/07/19 08:44:23;;;;;;;6.10;1.48;;;;;;;;;;4924595;29;20554;-66
2022/07/19 08:46:50;;;;;;;3.25;1.63;;;;;;;;;;4921485;29;20056;-66
2022/07/19 08:49:16;;;;;;;4.32;1.73;;;;;;;;;;4916927;29;20055;-67
2022/07/19 08:51:43;;;;;;;5.20;1.48;;;;;;;;;;4918522;29;20059;-68
2022/07/19 08:54:11;;;;;;;5.15;1.63;;;;;;;;;;4906890;29;20495;-66
2022/07/19 08:59:23;;;;;;;2.78;1.88;;;;;;;;;;4935987;29;20064;-67
2022/07/19 09:01:50;;;;;;;2.30;1.90;;;;;;;;;;4936360;29;20054;-67
2022/07/19 09:04:19;;;;;;;1.88;1.20;;;;;;;;;;4924372;29;20060;-67
2022/07/19 09:06:53;;;;;;;5.15;1.70;;;;;;;;;;4927796;29;20111;-66
2022/07/19 09:09:30;;;;;;;2.15;1.42;;;;;;;;;;4927216;29;20056;-66
2022/07/19 09:11:59;;;;;;;3.85;1.70;;;;;;;;;;4930699;29;20047;-66
2022/07/19 09:14:29;;;;;;;3.08;1.48;;;;;;;;;;4928938;29;20525;-66
2022/07/19 09:16:57;;;;;;;2.83;1.60;;;;;;;;;;4929085;29;20056;-66
2022/07/19 09:19:25;;;;;;;5.43;1.30;;;;;;;;;;4928396;29;20095;-66
2022/07/19 09:21:53;;;;;;;3.00;1.45;;;;;;;;;;4923413;29;20136;-66
2022/07/19 09:24:21;;;;;;;4.95;2.00;;;;;;;;;;4930184;29;20051;-67
2022/07/19 09:27:01;;;;;;;4.63;2.13;;;;;;;;;;4920329;29;20059;-67
2022/07/19 09:29:29;;;;;;;4.80;1.75;;;;;;;;;;4956127;23;20034;-70
2022/07/19 09:32:04;;;;;;;4.75;1.88;;;;;;;;;;4936782;29;20047;-70
2022/07/19 09:34:33;;;;;;;2.55;1.90;;;;;;;;;;4937072;29;20063;-70
2022/07/19 09:37:15;;;;;;;13.07;3.58;;;;;;;;;;4935823;29;20058;-70
2022/07/19 09:39:45;;;;;;;2.85;1.50;;;;;;;;;;4930233;29;20143;-70
2022/07/19 09:42:13;;;;;;;2.65;1.55;;;;;;;;;;4917505;29;20055;-70
2022/07/19 09:44:40;;;;;;;8.02;2.53;;;;;;;;;;4917406;29;20103;-70
2022/07/19 09:47:07;;;;;;;11.82;2.67;;;;;;;;;;4901756;29;20048;-70
2022/07/19 09:49:38;;;;;;;10.07;3.38;;;;;;;;;;4896278;29;20053;-70
2022/07/19 09:52:04;;;;;;;3.67;1.60;;;;;;;;;;4896572;29;20060;-70
2022/07/19 09:54:31;;;;;;;3.10;1.67;;;;;;;;;;4896381;29;20060;-70
2022/07/19 09:56:59;;;;;;;2.17;1.70;;;;;;;;;;4909268;29;20423;-70
2022/07/19 09:59:26;;;;;;;4.68;2.30;;;;;;;;;;4913998;29;20488;-70
2022/07/19 10:01:54;;;;;;;7.65;1.90;;;;;;;;;;4914920;29;20059;-70
2022/07/19 10:04:23;;;;;;;1.98;1.75;;;;;;;;;;4914382;29;20139;-70
2022/07/19 10:06:50;;;;;;;3.28;2.30;;;;;;;;;;4903509;29;20709;-70
2022/07/19 10:09:19;;;;;;;3.08;2.33;;;;;;;;;;4896196;29;20550;-70
2022/07/19 10:11:54;;;;;;;3.63;2.17;;;;;;;;;;4896388;29;20058;-70
2022/07/19 10:14:21;;;;;;;2.92;1.90;;;;;;;;;;4910830;29;20064;-70
2022/07/19 10:16:50;;;;;;;3.97;2.22;;;;;;;;;;4906355;29;20095;-70
2022/07/19 10:19:38;;;;;;;3.92;2.15;;;;;;;;;;4914956;29;20095;-70
2022/07/19 10:22:06;;;;;;;4.22;1.90;;;;;;;;;;4915153;29;20048;-70
2022/07/19 10:24:56;;;;;;;4.28;2.53;;;;;;;;;;4913911;29;20069;-70
2022/07/19 10:27:25;;;;;;;7.05;2.15;;;;;;;;;;4899844;29;20056;-70
2022/07/19 10:30:12;;;;;;;2.75;2.47;;;;;;;;;;4895182;29;20052;-70
2022/07/19 10:32:42;;;;;;;3.85;2.72;;;;;;;;;;4896094;29;20126;-70
2022/07/19 10:35:37;;;;;;;2.90;2.20;;;;;;;;;;4896085;29;20052;-70
2022/07/19 10:38:03;;;;;;;3.42;2.30;;;;;;;;;;4895662;29;20062;-71
2022/07/19 10:40:44;;;;;;;4.22;2.20;;;;;;;;;;4895888;29;20053;-71
2022/07/19 10:43:11;;;;;;;4.80;2.10;;;;;;;;;;4895614;29;20053;-71
2022/07/19 10:45:40;;;;;;;4.00;2.25;;;;;;;;;;4896263;29;20059;-71
2022/07/19 10:48:09;;;;;;;3.53;2.10;;;;;;;;;;4896722;29;20066;-71
2022/07/19 10:50:47;;;;;;;2.30;1.98;;;;;;;;;;4901534;29;20084;-71
2022/07/19 10:53:42;;;;;;;4.45;2.22;;;;;;;;;;4900435;29;20055;-72
2022/07/19 10:56:16;;;;;;;4.43;2.30;;;;;;;;;;4905978;29;20052;-72
2022/07/19 10:58:53;;;;;;;2.05;1.70;;;;;;;;;;4913720;29;20044;-72
2022/07/19 11:01:21;;;;;;;2.00;1.77;;;;;;;;;;4907608;29;20691;-70
2022/07/19 11:03:50;;;;;;;1.95;1.85;;;;;;;;;;4905343;29;20710;-70
2022/07/19 11:06:25;;;;;;;4.53;1.92;;;;;;;;;;4926805;29;20060;-72
2022/07/19 11:08:56;;;;;;;2.10;1.90;;;;;;;;;;4897787;29;20059;-72
2022/07/19 11:11:26;;;;;;;3.22;1.88;;;;;;;;;;4929383;29;20083;-72
2022/07/19 11:13:54;;;;;;;2.83;1.80;;;;;;;;;;4912081;29;21796;-72
2022/07/19 11:16:23;;;;;;;3.47;2.35;;;;;;;;;;4912163;29;20071;-72
2022/07/19 11:18:50;;;;;;;6.93;2.08;;;;;;;;;;4901569;29;20131;-72
2022/07/19 11:21:17;;;;;;;4.82;1.92;;;;;;;;;;4901604;29;20430;-72
2022/07/19 11:23:44;;;;;;;3.17;1.75;;;;;;;;;;4899363;29;20051;-72
2022/07/19 11:26:17;;;;;;;6.07;3.05;;;;;;;;;;4911093;29;20066;-72
2022/07/19 11:28:45;;;;;;;4.95;2.10;;;;;;;;;;4901224;29;20076;-72
2022/07/19 11:31:22;;;;;;;3.97;1.75;;;;;;;;;;4913064;29;20078;-72
2022/07/19 11:33:53;;;;;;;3.75;2.03;;;;;;;;;;4912474;29;20095;-72
2022/07/19 11:36:20;;;;;;;3.20;1.60;;;;;;;;;;4911874;29;20092;-72
2022/07/19 11:38:48;;;;;;;2.10;1.90;;;;;;;;;;4926784;29;20052;-72
2022/07/19 11:41:18;;;;;;;5.63;2.00;;;;;;;;;;4901065;29;20087;-72
2022/07/19 11:43:57;;;;;;;4.55;1.83;;;;;;;;;;4909469;29;20491;-73
2022/07/19 11:46:26;;;;;;;4.32;1.83;;;;;;;;;;4914483;29;20066;-71
2022/07/19 11:48:57;;;;;;;4.38;1.83;;;;;;;;;;4915065;29;20578;-71
2022/07/19 11:51:24;;;;;;;2.70;1.90;;;;;;;;;;4914743;29;20060;-71
2022/07/19 11:53:54;;;;;;;2.00;1.70;;;;;;;;;;4907487;29;20059;-72
2022/07/19 11:56:22;;;;;;;1.80;1.70;;;;;;;;;;4896674;29;20053;-72
2022/07/19 11:58:54;;;;;;;2.20;1.83;;;;;;;;;;4896474;29;20066;-71
2022/07/19 12:01:29;;;;;;;;;;;;;;;;;;4895974;29;20064;-71
2022/07/19 12:04:03;;;;;;;6.68;2.35;;;;;;;;;;4904715;29;19927;-71
2022/07/19 12:06:42;;;;;;;4.55;2.25;;;;;;;;;;4907565;29;20048;-74
2022/07/19 12:09:11;;;;;;;5.00;2.10;;;;;;;;;;4889783;29;20131;-72
2022/07/19 12:11:40;;;;;;;7.20;2.05;;;;;;;;;;4914766;29;20081;-70
2022/07/19 12:14:18;;;;;;;3.83;2.17;;;;;;;;;;4897415;29;20064;-70
2022/07/19 12:16:46;;;;;;;2.55;1.70;;;;;;;;;;4910762;29;20044;-71
2022/07/19 12:19:17;;;;;;;5.57;2.80;;;;;;;;;;4912344;29;20082;-71
2022/07/19 12:21:44;;;;;;;5.30;2.58;;;;;;;;;;4910694;29;20055;-71
2022/07/19 12:24:24;;;;;;;4.90;1.90;;;;;;;;;;4910046;29;20048;-71
2022/07/19 12:26:51;;;;;;;3.53;1.92;;;;;;;;;;4911121;29;20055;-71
2022/07/19 12:29:22;;;;;;;4.97;1.90;;;;;;;;;;4913808;29;20071;-71
2022/07/19 12:31:54;;;;;;;5.97;2.60;;;;;;;;;;4915920;29;20410;-71
2022/07/19 12:34:21;;;;;;;3.38;1.88;;;;;;;;;;4915233;29;20329;-70
2022/07/19 12:36:47;;;;;;;3.63;1.90;;;;;;;;;;4915822;29;20078;-71
2022/07/19 12:39:54;;;;;;;4.20;2.30;;;;;;;;;;4914988;29;20048;-72
2022/07/19 12:42:21;;;;;;;3.13;1.88;;;;;;;;;;4915308;29;20052;-72
2022/07/19 12:44:49;;;;;;;3.88;2.10;;;;;;;;;;4914285;29;20076;-72
2022/07/19 12:47:16;;;;;;;3.30;2.00;;;;;;;;;;4915539;29;20496;-72
2022/07/19 12:50:03;;;;;;;4.30;1.90;;;;;;;;;;4915696;29;20056;-72
2022/07/19 12:52:37;;;;;;;2.63;2.15;;;;;;;;;;4915396;29;20511;-72
2022/07/19 12:55:04;;;;;;;3.20;1.98;;;;;;;;;;4913933;29;20063;-71
2022/07/19 12:57:33;;;;;;;4.93;2.13;;;;;;;;;;4915569;29;20052;-72
2022/07/19 12:59:59;;;;;;;2.42;2.00;;;;;;;;;;4913269;29;20075;-72
2022/07/19 13:02:26;;;;;;;6.43;2.22;;;;;;;;;;4913397;29;20052;-73
2022/07/19 13:04:53;;;;;;;4.22;2.22;;;;;;;;;;4913619;29;20130;-72
2022/07/19 13:07:20;;;;;;;3.88;2.20;;;;;;;;;;4914644;29;20446;-72
2022/07/19 13:09:47;;;;;;;4.43;2.15;;;;;;;;;;4913739;29;20503;-72
2022/07/19 13:12:13;;;;;;;4.72;2.20;;;;;;;;;;4914727;29;20064;-72
2022/07/19 13:14:40;;;;;;;3.60;2.10;;;;;;;;;;4914019;29;20499;-72
2022/07/19 13:17:10;;;;;;;4.90;2.90;;;;;;;;;;4915022;29;20063;-72
2022/07/19 13:19:40;;;;;;;3.67;1.92;;;;;;;;;;4914127;29;20056;-73
2022/07/19 13:22:07;;;;;;;6.00;2.53;;;;;;;;;;4914141;29;20055;-72
2022/07/19 13:24:34;;;;;;;5.80;2.15;;;;;;;;;;4914979;29;20048;-72
2022/07/19 13:27:21;;;;;;;5.20;2.72;;;;;;;;;;4913950;29;20056;-72
2022/07/19 13:29:47;;;;;;;3.65;2.08;;;;;;;;;;4913755;29;20063;-72
2022/07/19 13:32:14;;;;;;;2.65;1.70;;;;;;;;;;4913991;29;20040;-71
2022/07/19 13:34:41;;;;;;;5.38;2.60;;;;;;;;;;4913902;29;20143;-73
2022/07/19 13:37:08;;;;;;;3.97;1.92;;;;;;;;;;4913143;29;20048;-72
2022/07/19 13:39:35;;;;;;;5.10;2.10;;;;;;;;;;4913860;29;20052;-72
2022/07/19 13:42:01;;;;;;;4.95;1.83;;;;;;;;;;4914467;29;20475;-72
2022/07/19 13:44:28;;;;;;;2.83;2.20;;;;;;;;;;4913702;29;20484;-73
2022/07/19 13:46:55;;;;;;;7.47;2.13;;;;;;;;;;4909116;29;20047;-73
2022/07/19 13:49:22;;;;;;;3.40;2.08;;;;;;;;;;4913450;29;20068;-73
2022/07/19 13:51:49;;;;;;;5.22;2.30;;;;;;;;;;4914313;29;20048;-72
2022/07/19 13:54:17;;;;;;;4.82;2.22;;;;;;;;;;4912651;29;20043;-73
2022/07/19 13:56:43;;;;;;;3.28;1.70;;;;;;;;;;4913898;29;20069;-72
2022/07/19 13:59:10;;;;;;;2.00;1.77;;;;;;;;;;4912241;29;20048;-72
2022/07/19 14:01:36;;;;;;;5.38;2.33;;;;;;;;;;4913175;29;20055;-72
2022/07/19 14:04:13;;;;;;;4.40;2.15;;;;;;;;;;4913215;29;20048;-73
2022/07/19 14:06:48;;;;;;;3.60;2.03;;;;;;;;;;4913645;29;20156;-73
2022/07/19 14:09:15;;;;;;;2.88;1.80;;;;;;;;;;4913867;29;20048;-73
2022/07/19 14:11:43;;;;;;;3.97;2.63;;;;;;;;;;4912668;29;20047;-72
2022/07/19 14:14:09;;;;;;;3.85;1.67;;;;;;;;;;4913042;29;20495;-72
2022/07/19 14:16:36;;;;;;;4.57;2.20;;;;;;;;;;4913463;29;20060;-72
2022/07/19 14:19:03;;;;;;;5.18;2.00;;;;;;;;;;4914680;29;20056;-73
2022/07/19 14:21:33;;;;;;;3.35;1.90;;;;;;;;;;4909706;29;20479;-73
2022/07/19 14:24:01;;;;;;;4.13;1.98;;;;;;;;;;4911553;29;20114;-73
2022/07/19 14:26:27;;;;;;;2.65;1.85;;;;;;;;;;4915655;29;20052;-73
2022/07/19 14:28:54;;;;;;;4.78;2.05;;;;;;;;;;4914859;29;20063;-73
2022/07/19 14:31:21;;;;;;;5.50;2.05;;;;;;;;;;4913764;29;20066;-72
2022/07/19 14:33:48;;;;;;;4.05;2.17;;;;;;;;;;4896023;29;20501;-73
2022/07/19 14:36:15;;;;;;;4.50;1.90;;;;;;;;;;4895257;29;20060;-73
2022/07/19 14:38:41;;;;;;;2.65;1.70;;;;;;;;;;4896841;29;20148;-73
2022/07/19 14:41:08;;;;;;;2.63;2.00;;;;;;;;;;4896474;29;20059;-73
2022/07/19 14:43:35;;;;;;;2.60;2.00;;;;;;;;;;4896866;29;20054;-73
2022/07/19 14:46:02;;;;;;;4.60;2.30;;;;;;;;;;4895722;29;20169;-72
2022/07/19 14:48:29;;;;;;;3.97;1.88;;;;;;;;;;4896413;29;20056;-73
2022/07/19 14:50:55;;;;;;;5.63;2.28;;;;;;;;;;4905066;29;20049;-73
2022/07/19 14:53:22;;;;;;;3.03;2.00;;;;;;;;;;4895435;29;20139;-73